TNCC/CUR METAR and TAF weather

Enter ICAO airport designator
Station Type Date Time Source
TNCC METAR 2019/04/22 20:00 UTC NOAA

TNCC 222000Z 09011KT 9999 FEW022 29/22 Q1011 NOSIG


Station Type Date Time Source
TNCC Decoded METAR 2019/04/22 20:00 UTC NOAA

Hato Airport, Curacao, Netherlands Antilles (TNCC) 12-12N 068-58W 67M
Apr 22, 2019 - 04:00 PM EDT / 2019.04.22 2000 UTC
Wind: from the E (090 degrees) at 13 MPH (11 KT):0
Visibility: greater than 7 mile(s):0
Sky conditions: mostly clear
Temperature: 84 F (29 C)
Dew Point: 71 F (22 C)
Relative Humidity: 65%
Pressure (altimeter): 29.85 in. Hg (1011 hPa)
ob: TNCC 222000Z 09011KT 9999 FEW022 29/22 Q1011 NOSIG
cycle: 20

Station Type Date Time Source
TNCC TAF 2019/04/22 18:19 UTC NOAA

TAF TNCC 221600Z 2218/2318 10013KT 9999 SCT022

Example: see airport list